sensor_id;sensor_type;location;lat;lon;timestamp;pressure;altitude;pressure_sealevel;temperature;humidity
26436;BME280;15351;52.408;16.826;2023-03-14T00:04:53;98828.41;;;13.26;74.48
26436;BME280;15351;52.408;16.826;2023-03-14T00:18:39;98825.25;;;13.26;75.20
26436;BME280;15351;52.408;16.826;2023-03-14T00:21:15;98819.55;;;13.25;75.34
26436;BME280;15351;52.408;16.826;2023-03-14T00:24:01;98812.30;;;13.25;75.50
26436;BME280;15351;52.408;16.826;2023-03-14T00:26:58;98811.10;;;13.25;75.80
26436;BME280;15351;52.408;16.826;2023-03-14T00:30:19;98803.78;;;13.27;75.73
26436;BME280;15351;52.408;16.826;2023-03-14T00:33:13;98802.30;;;13.26;75.84
26436;BME280;15351;52.408;16.826;2023-03-14T00:35:41;98795.04;;;13.26;76.06
26436;BME280;15351;52.408;16.826;2023-03-14T00:38:17;98791.46;;;13.26;76.24
26436;BME280;15351;52.408;16.826;2023-03-14T00:40:52;98791.27;;;13.27;76.16
26436;BME280;15351;52.408;16.826;2023-03-14T00:43:20;98782.17;;;13.27;76.39
26436;BME280;15351;52.408;16.826;2023-03-14T00:45:51;98775.61;;;13.27;76.36
26436;BME280;15351;52.408;16.826;2023-03-14T00:51:04;98772.58;;;13.24;76.74
26436;BME280;15351;52.408;16.826;2023-03-14T00:54:06;98768.05;;;13.25;76.87
26436;BME280;15351;52.408;16.826;2023-03-14T00:56:46;98774.17;;;13.29;77.27
26436;BME280;15351;52.408;16.826;2023-03-14T00:59:21;98775.88;;;13.32;77.41
26436;BME280;15351;52.408;16.826;2023-03-14T01:01:48;98775.15;;;13.33;77.71
26436;BME280;15351;52.408;16.826;2023-03-14T01:04:38;98773.98;;;13.35;77.92
26436;BME280;15351;52.408;16.826;2023-03-14T01:07:24;98770.65;;;13.36;78.23
26436;BME280;15351;52.408;16.826;2023-03-14T01:09:52;98769.73;;;13.36;78.55
26436;BME280;15351;52.408;16.826;2023-03-14T01:12:25;98760.15;;;13.38;79.11
26436;BME280;15351;52.408;16.826;2023-03-14T01:15:08;98749.52;;;13.43;79.52
26436;BME280;15351;52.408;16.826;2023-03-14T01:18:13;98741.70;;;13.42;79.71
26436;BME280;15351;52.408;16.826;2023-03-14T01:20:43;98734.13;;;13.39;80.17
26436;BME280;15351;52.408;16.826;2023-03-14T01:23:52;98722.73;;;13.38;80.43
26436;BME280;15351;52.408;16.826;2023-03-14T01:26:34;98709.33;;;13.35;80.69
26436;BME280;15351;52.408;16.826;2023-03-14T01:29:38;98703.33;;;13.33;80.99
26436;BME280;15351;52.408;16.826;2023-03-14T01:32:40;98692.87;;;13.33;81.20
26436;BME280;15351;52.408;16.826;2023-03-14T01:39:03;98670.16;;;13.39;81.48
26436;BME280;15351;52.408;16.826;2023-03-14T01:41:44;98657.77;;;13.45;81.31
26436;BME280;15351;52.408;16.826;2023-03-14T01:44:12;98650.80;;;13.47;81.28
26436;BME280;15351;52.408;16.826;2023-03-14T01:46:43;98643.74;;;13.47;81.16
26436;BME280;15351;52.408;16.826;2023-03-14T01:49:37;98655.20;;;13.44;81.09
26436;BME280;15351;52.408;16.826;2023-03-14T01:52:42;98648.86;;;13.44;81.27
26436;BME280;15351;52.408;16.826;2023-03-14T01:55:36;98643.70;;;13.50;81.25
26436;BME280;15351;52.408;16.826;2023-03-14T01:58:09;98652.30;;;13.51;81.23
26436;BME280;15351;52.408;16.826;2023-03-14T02:00:53;98632.98;;;13.50;81.06
26436;BME280;15351;52.408;16.826;2023-03-14T02:03:45;98631.90;;;13.52;80.92
26436;BME280;15351;52.408;16.826;2023-03-14T02:06:56;98649.33;;;13.52;80.75
26436;BME280;15351;52.408;16.826;2023-03-14T02:09:30;98656.05;;;13.49;80.66
26436;BME280;15351;52.408;16.826;2023-03-14T02:12:37;98657.52;;;13.47;80.63
26436;BME280;15351;52.408;16.826;2023-03-14T02:15:45;98659.39;;;13.45;80.63
26436;BME280;15351;52.408;16.826;2023-03-14T02:18:54;98663.35;;;13.47;80.49
26436;BME280;15351;52.408;16.826;2023-03-14T02:21:54;98665.95;;;13.49;80.55
26436;BME280;15351;52.408;16.826;2023-03-14T02:25:12;98671.10;;;13.45;80.56
26436;BME280;15351;52.408;16.826;2023-03-14T02:27:53;98670.41;;;13.37;81.05
26436;BME280;15351;52.408;16.826;2023-03-14T02:30:32;98668.05;;;13.29;81.35
26436;BME280;15351;52.408;16.826;2023-03-14T02:33:10;98661.77;;;13.24;81.65
26436;BME280;15351;52.408;16.826;2023-03-14T02:35:48;98659.44;;;13.22;81.85
26436;BME280;15351;52.408;16.826;2023-03-14T02:40:58;98668.58;;;13.17;82.40
26436;BME280;15351;52.408;16.826;2023-03-14T02:46:28;98665.08;;;13.17;82.36
26436;BME280;15351;52.408;16.826;2023-03-14T02:49:36;98665.55;;;13.16;82.49
26436;BME280;15351;52.408;16.826;2023-03-14T02:52:05;98662.44;;;13.12;82.43
26436;BME280;15351;52.408;16.826;2023-03-14T02:54:36;98663.49;;;13.09;82.50
26436;BME280;15351;52.408;16.826;2023-03-14T02:57:08;98663.79;;;13.05;82.60
26436;BME280;15351;52.408;16.826;2023-03-14T02:59:59;98676.80;;;13.02;82.71
26436;BME280;15351;52.408;16.826;2023-03-14T03:02:32;98678.40;;;13.03;82.83
26436;BME280;15351;52.408;16.826;2023-03-14T03:05:47;98678.61;;;13.07;82.87
26436;BME280;15351;52.408;16.826;2023-03-14T03:08:29;98671.48;;;13.05;82.60
26436;BME280;15351;52.408;16.826;2023-03-14T03:11:04;98669.94;;;13.02;82.61
26436;BME280;15351;52.408;16.826;2023-03-14T03:13:34;98659.59;;;13.00;82.60
26436;BME280;15351;52.408;16.826;2023-03-14T03:16:04;98656.75;;;12.97;82.50
26436;BME280;15351;52.408;16.826;2023-03-14T03:18:32;98655.20;;;12.94;82.69
26436;BME280;15351;52.408;16.826;2023-03-14T03:21:23;98657.96;;;12.92;82.90
26436;BME280;15351;52.408;16.826;2023-03-14T03:23:54;98661.63;;;12.91;82.90
26436;BME280;15351;52.408;16.826;2023-03-14T03:26:22;98662.63;;;12.87;82.85
26436;BME280;15351;52.408;16.826;2023-03-14T03:29:04;98648.33;;;12.83;82.96
26436;BME280;15351;52.408;16.826;2023-03-14T03:31:40;98631.95;;;12.78;83.09
26436;BME280;15351;52.408;16.826;2023-03-14T03:34:12;98623.90;;;12.77;83.19
26436;BME280;15351;52.408;16.826;2023-03-14T03:36:41;98618.61;;;12.75;83.08
26436;BME280;15351;52.408;16.826;2023-03-14T03:39:10;98628.69;;;12.73;83.26
26436;BME280;15351;52.408;16.826;2023-03-14T03:42:06;98625.47;;;12.67;83.14
26436;BME280;15351;52.408;16.826;2023-03-14T03:44:53;98617.83;;;12.64;83.05
26436;BME280;15351;52.408;16.826;2023-03-14T03:47:31;98614.08;;;12.62;82.94
26436;BME280;15351;52.408;16.826;2023-03-14T03:49:59;98607.09;;;12.57;82.82
26436;BME280;15351;52.408;16.826;2023-03-14T03:52:26;98596.48;;;12.53;82.51
26436;BME280;15351;52.408;16.826;2023-03-14T03:54:57;98593.59;;;12.50;82.47
26436;BME280;15351;52.408;16.826;2023-03-14T03:57:23;98590.64;;;12.47;82.16
26436;BME280;15351;52.408;16.826;2023-03-14T03:59:50;98582.27;;;12.43;82.06
26436;BME280;15351;52.408;16.826;2023-03-14T04:02:20;98583.70;;;12.44;81.87
26436;BME280;15351;52.408;16.826;2023-03-14T04:04:50;98581.26;;;12.44;81.58
26436;BME280;15351;52.408;16.826;2023-03-14T04:07:38;98578.36;;;12.38;81.29
26436;BME280;15351;52.408;16.826;2023-03-14T04:10:12;98581.38;;;12.32;81.14
26436;BME280;15351;52.408;16.826;2023-03-14T04:12:44;98583.44;;;12.24;81.14
26436;BME280;15351;52.408;16.826;2023-03-14T04:15:43;98582.59;;;12.19;81.16
26436;BME280;15351;52.408;16.826;2023-03-14T04:18:27;98580.16;;;12.15;81.20
26436;BME280;15351;52.408;16.826;2023-03-14T04:21:03;98581.29;;;12.17;80.76
26436;BME280;15351;52.408;16.826;2023-03-14T04:24:16;98586.89;;;12.10;80.53
26436;BME280;15351;52.408;16.826;2023-03-14T04:26:50;98569.59;;;12.02;80.60
26436;BME280;15351;52.408;16.826;2023-03-14T04:29:20;98584.91;;;12.00;80.52
26436;BME280;15351;52.408;16.826;2023-03-14T04:31:49;98590.77;;;11.92;80.58
26436;BME280;15351;52.408;16.826;2023-03-14T04:34:19;98596.20;;;11.86;80.58
26436;BME280;15351;52.408;16.826;2023-03-14T04:36:50;98578.41;;;11.80;80.66
26436;BME280;15351;52.408;16.826;2023-03-14T04:39:33;98571.58;;;11.85;80.70
26436;BME280;15351;52.408;16.826;2023-03-14T04:42:57;98557.16;;;11.83;80.53
26436;BME280;15351;52.408;16.826;2023-03-14T04:46:01;98554.52;;;11.80;80.18
26436;BME280;15351;52.408;16.826;2023-03-14T04:48:32;98558.11;;;11.73;80.31
26436;BME280;15351;52.408;16.826;2023-03-14T04:51:19;98550.02;;;11.68;80.23
26436;BME280;15351;52.408;16.826;2023-03-14T04:54:19;98544.38;;;11.65;79.95
26436;BME280;15351;52.408;16.826;2023-03-14T04:57:07;98544.08;;;11.60;79.92
26436;BME280;15351;52.408;16.826;2023-03-14T05:00:17;98543.27;;;11.60;80.18
26436;BME280;15351;52.408;16.826;2023-03-14T05:03:05;98539.91;;;11.59;79.90
26436;BME280;15351;52.408;16.826;2023-03-14T05:09:47;98559.80;;;11.59;79.52
26436;BME280;15351;52.408;16.826;2023-03-14T05:12:54;98553.81;;;11.50;79.21
26436;BME280;15351;52.408;16.826;2023-03-14T05:16:08;98564.65;;;11.44;79.15
26436;BME280;15351;52.408;16.826;2023-03-14T05:22:22;98579.55;;;11.37;78.79
26436;BME280;15351;52.408;16.826;2023-03-14T05:25:42;98575.73;;;11.28;78.86
26436;BME280;15351;52.408;16.826;2023-03-14T05:29:06;98566.30;;;11.25;78.75
26436;BME280;15351;52.408;16.826;2023-03-14T05:32:37;98567.07;;;11.24;78.97
26436;BME280;15351;52.408;16.826;2023-03-14T05:35:41;98564.98;;;11.27;78.61
26436;BME280;15351;52.408;16.826;2023-03-14T05:38:44;98571.48;;;11.29;78.59
26436;BME280;15351;52.408;16.826;2023-03-14T05:42:10;98575.12;;;11.25;78.59
26436;BME280;15351;52.408;16.826;2023-03-14T05:45:13;98563.20;;;11.27;78.81
26436;BME280;15351;52.408;16.826;2023-03-14T05:48:08;98564.98;;;11.30;78.87
26436;BME280;15351;52.408;16.826;2023-03-14T05:51:24;98559.39;;;11.29;78.64
26436;BME280;15351;52.408;16.826;2023-03-14T05:54:11;98561.58;;;11.30;78.93
26436;BME280;15351;52.408;16.826;2023-03-14T05:57:25;98564.22;;;11.33;78.87
26436;BME280;15351;52.408;16.826;2023-03-14T06:00:15;98563.69;;;11.35;78.96
26436;BME280;15351;52.408;16.826;2023-03-14T06:03:35;98566.59;;;11.36;78.98
26436;BME280;15351;52.408;16.826;2023-03-14T06:06:34;98563.86;;;11.43;79.12
26436;BME280;15351;52.408;16.826;2023-03-14T06:09:43;98567.59;;;11.44;78.91
26436;BME280;15351;52.408;16.826;2023-03-14T06:13:09;98572.34;;;11.43;78.91
26436;BME280;15351;52.408;16.826;2023-03-14T06:19:50;98569.02;;;11.45;78.92
26436;BME280;15351;52.408;16.826;2023-03-14T06:26:21;98578.73;;;11.46;78.72
26436;BME280;15351;52.408;16.826;2023-03-14T06:29:13;98581.20;;;11.48;78.74
26436;BME280;15351;52.408;16.826;2023-03-14T06:31:53;98578.55;;;11.50;78.71
26436;BME280;15351;52.408;16.826;2023-03-14T06:35:15;98571.70;;;11.50;78.60
26436;BME280;15351;52.408;16.826;2023-03-14T06:38:28;98575.38;;;11.52;78.61
26436;BME280;15351;52.408;16.826;2023-03-14T06:41:18;98565.14;;;11.55;78.58
26436;BME280;15351;52.408;16.826;2023-03-14T06:44:30;98561.65;;;11.61;78.62
26436;BME280;15351;52.408;16.826;2023-03-14T06:47:23;98562.70;;;11.66;78.85
26436;BME280;15351;52.408;16.826;2023-03-14T06:50:17;98566.61;;;11.70;78.79
26436;BME280;15351;52.408;16.826;2023-03-14T06:53:48;98561.49;;;11.75;78.65
26436;BME280;15351;52.408;16.826;2023-03-14T06:56:42;98548.80;;;11.79;78.82
26436;BME280;15351;52.408;16.826;2023-03-14T07:03:19;98558.45;;;11.94;79.13
26436;BME280;15351;52.408;16.826;2023-03-14T07:06:39;98549.61;;;12.07;79.27
26436;BME280;15351;52.408;16.826;2023-03-14T07:10:08;98545.02;;;12.15;79.05
26436;BME280;15351;52.408;16.826;2023-03-14T07:12:50;98542.83;;;12.19;78.92
26436;BME280;15351;52.408;16.826;2023-03-14T07:15:54;98543.75;;;12.18;78.91
26436;BME280;15351;52.408;16.826;2023-03-14T07:18:41;98542.73;;;12.24;79.20
26436;BME280;15351;52.408;16.826;2023-03-14T07:21:40;98548.11;;;12.32;78.99
26436;BME280;15351;52.408;16.826;2023-03-14T07:27:40;98540.58;;;12.29;78.57
26436;BME280;15351;52.408;16.826;2023-03-14T07:30:56;98540.23;;;12.28;78.60
26436;BME280;15351;52.408;16.826;2023-03-14T07:33:45;98535.75;;;12.31;78.89
26436;BME280;15351;52.408;16.826;2023-03-14T07:36:19;98533.12;;;12.37;78.85
26436;BME280;15351;52.408;16.826;2023-03-14T07:38:51;98532.40;;;12.43;78.75
26436;BME280;15351;52.408;16.826;2023-03-14T07:41:32;98536.09;;;12.43;78.83
26436;BME280;15351;52.408;16.826;2023-03-14T07:44:40;98532.40;;;12.47;78.82
26436;BME280;15351;52.408;16.826;2023-03-14T07:47:07;98536.55;;;12.49;78.74
26436;BME280;15351;52.408;16.826;2023-03-14T07:49:39;98537.58;;;12.51;78.71
26436;BME280;15351;52.408;16.826;2023-03-14T07:52:06;98542.70;;;12.56;78.67
26436;BME280;15351;52.408;16.826;2023-03-14T07:54:32;98541.58;;;12.60;78.53
26436;BME280;15351;52.408;16.826;2023-03-14T07:57:10;98545.86;;;12.62;78.40
26436;BME280;15351;52.408;16.826;2023-03-14T07:59:43;98550.86;;;12.65;78.57
26436;BME280;15351;52.408;16.826;2023-03-14T08:02:11;98544.23;;;12.67;78.50
26436;BME280;15351;52.408;16.826;2023-03-14T08:04:40;98539.30;;;12.73;78.53
26436;BME280;15351;52.408;16.826;2023-03-14T08:07:07;98538.75;;;12.83;78.21
26436;BME280;15351;52.408;16.826;2023-03-14T08:09:51;98546.14;;;12.87;77.76
26436;BME280;15351;52.408;16.826;2023-03-14T08:12:27;98549.39;;;12.89;77.92
26436;BME280;15351;52.408;16.826;2023-03-14T08:14:57;98538.92;;;12.94;77.67
26436;BME280;15351;52.408;16.826;2023-03-14T08:17:31;98541.42;;;12.98;77.67
26436;BME280;15351;52.408;16.826;2023-03-14T08:19:59;98556.65;;;13.05;77.41
26436;BME280;15351;52.408;16.826;2023-03-14T08:22:40;98560.63;;;13.13;77.04
26436;BME280;15351;52.408;16.826;2023-03-14T08:25:06;98564.07;;;13.17;76.93
26436;BME280;15351;52.408;16.826;2023-03-14T08:27:34;98570.42;;;13.20;76.76
26436;BME280;15351;52.408;16.826;2023-03-14T08:30:10;98567.36;;;13.21;76.66
26436;BME280;15351;52.408;16.826;2023-03-14T08:32:38;98567.58;;;13.24;76.57
26436;BME280;15351;52.408;16.826;2023-03-14T08:35:21;98568.30;;;13.30;76.21
26436;BME280;15351;52.408;16.826;2023-03-14T08:38:11;98563.41;;;13.35;76.23
26436;BME280;15351;52.408;16.826;2023-03-14T08:41:11;98567.19;;;13.45;75.97
26436;BME280;15351;52.408;16.826;2023-03-14T08:44:19;98562.11;;;13.48;75.78
26436;BME280;15351;52.408;16.826;2023-03-14T08:46:45;98556.57;;;13.52;75.43
26436;BME280;15351;52.408;16.826;2023-03-14T08:49:34;98550.00;;;13.56;75.09
26436;BME280;15351;52.408;16.826;2023-03-14T08:55:10;98547.26;;;13.70;75.17
26436;BME280;15351;52.408;16.826;2023-03-14T08:57:40;98555.30;;;13.76;74.59
26436;BME280;15351;52.408;16.826;2023-03-14T09:00:12;98553.50;;;13.81;74.30
26436;BME280;15351;52.408;16.826;2023-03-14T09:03:09;98554.55;;;13.82;73.97
26436;BME280;15351;52.408;16.826;2023-03-14T09:05:55;98557.85;;;13.82;74.12
26436;BME280;15351;52.408;16.826;2023-03-14T09:08:28;98564.19;;;13.82;73.98
26436;BME280;15351;52.408;16.826;2023-03-14T09:10:57;98570.70;;;13.82;73.71
26436;BME280;15351;52.408;16.826;2023-03-14T09:13:30;98569.36;;;13.77;73.35
26436;BME280;15351;52.408;16.826;2023-03-14T09:15:57;98559.98;;;13.77;73.33
26436;BME280;15351;52.408;16.826;2023-03-14T09:18:25;98555.02;;;13.78;73.24
26436;BME280;15351;52.408;16.826;2023-03-14T09:20:52;98549.44;;;13.78;73.16
26436;BME280;15351;52.408;16.826;2023-03-14T09:23:19;98551.45;;;13.79;73.16
26436;BME280;15351;52.408;16.826;2023-03-14T09:26:19;98561.58;;;13.87;73.14
26436;BME280;15351;52.408;16.826;2023-03-14T09:29:11;98562.31;;;13.90;72.73
26436;BME280;15351;52.408;16.826;2023-03-14T09:31:49;98560.53;;;13.94;72.58
26436;BME280;15351;52.408;16.826;2023-03-14T09:34:18;98555.25;;;13.93;72.61
26436;BME280;15351;52.408;16.826;2023-03-14T09:37:03;98556.02;;;13.94;73.04
26436;BME280;15351;52.408;16.826;2023-03-14T09:39:35;98559.66;;;13.99;72.99
26436;BME280;15351;52.408;16.826;2023-03-14T09:42:06;98559.76;;;14.05;72.74
26436;BME280;15351;52.408;16.826;2023-03-14T09:44:54;98559.04;;;14.09;72.91
26436;BME280;15351;52.408;16.826;2023-03-14T09:50:55;98553.10;;;14.28;73.20
26436;BME280;15351;52.408;16.826;2023-03-14T09:53:43;98553.73;;;14.41;72.58
26436;BME280;15351;52.408;16.826;2023-03-14T09:56:54;98545.64;;;14.53;72.21
26436;BME280;15351;52.408;16.826;2023-03-14T09:59:55;98542.23;;;14.60;71.97
26436;BME280;15351;52.408;16.826;2023-03-14T10:02:33;98543.81;;;14.64;71.94
26436;BME280;15351;52.408;16.826;2023-03-14T10:05:00;98543.50;;;14.68;71.58
26436;BME280;15351;52.408;16.826;2023-03-14T10:11:10;98540.70;;;14.70;70.88
26436;BME280;15351;52.408;16.826;2023-03-14T10:14:34;98542.52;;;14.77;70.70
26436;BME280;15351;52.408;16.826;2023-03-14T10:17:38;98538.93;;;14.84;70.80
26436;BME280;15351;52.408;16.826;2023-03-14T10:22:12;98542.19;;;14.96;70.64
26436;BME280;15351;52.408;16.826;2023-03-14T10:28:47;98543.76;;;15.16;69.55
26436;BME280;15351;52.408;16.826;2023-03-14T10:31:57;98548.17;;;15.19;69.66
26436;BME280;15351;52.408;16.826;2023-03-14T10:34:32;98547.48;;;15.21;69.26
26436;BME280;15351;52.408;16.826;2023-03-14T10:37:06;98547.64;;;15.20;68.88
26436;BME280;15351;52.408;16.826;2023-03-14T10:39:42;98548.80;;;15.19;68.95
26436;BME280;15351;52.408;16.826;2023-03-14T10:42:25;98551.82;;;15.14;69.04
26436;BME280;15351;52.408;16.826;2023-03-14T10:44:58;98551.98;;;15.09;69.08
26436;BME280;15351;52.408;16.826;2023-03-14T10:47:27;98554.12;;;15.07;69.27
26436;BME280;15351;52.408;16.826;2023-03-14T10:54:09;98556.16;;;15.05;69.38
26436;BME280;15351;52.408;16.826;2023-03-14T11:00:59;98545.38;;;14.92;68.56
26436;BME280;15351;52.408;16.826;2023-03-14T11:03:31;98546.19;;;14.88;68.85
26436;BME280;15351;52.408;16.826;2023-03-14T11:06:14;98546.98;;;14.90;69.19
26436;BME280;15351;52.408;16.826;2023-03-14T11:09:25;98545.89;;;14.90;69.04
26436;BME280;15351;52.408;16.826;2023-03-14T11:28:08;98542.30;;;14.85;69.27
26436;BME280;15351;52.408;16.826;2023-03-14T11:34:50;98544.39;;;15.01;68.60
26436;BME280;15351;52.408;16.826;2023-03-14T11:37:47;98540.52;;;15.05;68.59
26436;BME280;15351;52.408;16.826;2023-03-14T11:49:00;98541.58;;;15.12;67.94
26436;BME280;15351;52.408;16.826;2023-03-14T11:58:31;98524.26;;;15.32;67.72
26436;BME280;15351;52.408;16.826;2023-03-14T12:01:06;98527.52;;;15.34;67.37
26436;BME280;15351;52.408;16.826;2023-03-14T12:11:32;98529.02;;;15.21;67.63
26436;BME280;15351;52.408;16.826;2023-03-14T12:14:46;98521.61;;;15.20;67.00
26436;BME280;15351;52.408;16.826;2023-03-14T12:17:35;98520.66;;;15.18;65.95
26436;BME280;15351;52.408;16.826;2023-03-14T12:20:34;98514.91;;;15.17;64.02
26436;BME280;15351;52.408;16.826;2023-03-14T12:23:41;98517.30;;;15.22;63.35
26436;BME280;15351;52.408;16.826;2023-03-14T12:26:44;98512.11;;;15.28;62.62
26436;BME280;15351;52.408;16.826;2023-03-14T12:29:23;98514.11;;;15.32;61.59
26436;BME280;15351;52.408;16.826;2023-03-14T12:32:08;98517.02;;;15.31;60.88
26436;BME280;15351;52.408;16.826;2023-03-14T12:39:58;98514.63;;;15.22;59.91
26436;BME280;15351;52.408;16.826;2023-03-14T12:43:24;98516.63;;;15.20;59.73
26436;BME280;15351;52.408;16.826;2023-03-14T12:50:19;98513.13;;;15.13;59.41
26436;BME280;15351;52.408;16.826;2023-03-14T13:07:03;98507.20;;;15.48;59.33
26436;BME280;15351;52.408;16.826;2023-03-14T13:10:50;98501.44;;;15.64;59.04
26436;BME280;15351;52.408;16.826;2023-03-14T13:14:15;98503.27;;;15.85;58.66
26436;BME280;15351;52.408;16.826;2023-03-14T13:26:36;98497.28;;;16.51;56.66
26436;BME280;15351;52.408;16.826;2023-03-14T13:29:49;98502.48;;;16.47;56.25
26436;BME280;15351;52.408;16.826;2023-03-14T13:32:27;98508.77;;;16.33;55.84
26436;BME280;15351;52.408;16.826;2023-03-14T13:35:14;98511.23;;;16.18;56.09
26436;BME280;15351;52.408;16.826;2023-03-14T13:38:43;98509.42;;;16.06;56.28
26436;BME280;15351;52.408;16.826;2023-03-14T13:41:36;98504.62;;;15.97;56.40
26436;BME280;15351;52.408;16.826;2023-03-14T13:44:30;98507.83;;;15.94;57.02
26436;BME280;15351;52.408;16.826;2023-03-14T13:50:23;98503.74;;;15.89;57.83
26436;BME280;15351;52.408;16.826;2023-03-14T13:53:16;98502.64;;;15.88;58.38
26436;BME280;15351;52.408;16.826;2023-03-14T13:56:11;98504.04;;;15.80;58.58
26436;BME280;15351;52.408;16.826;2023-03-14T13:58:46;98508.08;;;15.74;58.97
26436;BME280;15351;52.408;16.826;2023-03-14T14:01:34;98502.94;;;15.63;59.19
26436;BME280;15351;52.408;16.826;2023-03-14T14:04:32;98498.30;;;15.56;59.64
26436;BME280;15351;52.408;16.826;2023-03-14T14:07:01;98500.41;;;15.56;60.08
26436;BME280;15351;52.408;16.826;2023-03-14T14:09:53;98497.78;;;15.54;59.94
26436;BME280;15351;52.408;16.826;2023-03-14T14:12:44;98499.94;;;15.49;59.55
26436;BME280;15351;52.408;16.826;2023-03-14T14:15:29;98496.52;;;15.41;59.38
26436;BME280;15351;52.408;16.826;2023-03-14T14:18:26;98492.96;;;15.39;59.82
26436;BME280;15351;52.408;16.826;2023-03-14T14:20:55;98488.66;;;15.38;59.85
26436;BME280;15351;52.408;16.826;2023-03-14T14:23:53;98492.63;;;15.39;59.81
26436;BME280;15351;52.408;16.826;2023-03-14T14:26:28;98493.23;;;15.35;59.65
26436;BME280;15351;52.408;16.826;2023-03-14T14:29:16;98500.11;;;15.29;59.80
26436;BME280;15351;52.408;16.826;2023-03-14T14:32:17;98505.58;;;15.23;59.67
26436;BME280;15351;52.408;16.826;2023-03-14T14:35:10;98509.27;;;15.16;60.14
26436;BME280;15351;52.408;16.826;2023-03-14T14:37:48;98505.67;;;15.12;60.05
26436;BME280;15351;52.408;16.826;2023-03-14T14:40:24;98510.39;;;15.07;59.83
26436;BME280;15351;52.408;16.826;2023-03-14T14:43:02;98510.30;;;14.97;59.70
26436;BME280;15351;52.408;16.826;2023-03-14T14:45:42;98511.77;;;14.89;60.08
26436;BME280;15351;52.408;16.826;2023-03-14T14:48:54;98511.23;;;14.79;60.77
26436;BME280;15351;52.408;16.826;2023-03-14T14:51:27;98508.71;;;14.65;61.71
26436;BME280;15351;52.408;16.826;2023-03-14T14:54:32;98505.97;;;14.50;62.42
26436;BME280;15351;52.408;16.826;2023-03-14T14:57:36;98502.41;;;14.36;63.09
26436;BME280;15351;52.408;16.826;2023-03-14T15:01:24;98499.38;;;14.30;64.00
26436;BME280;15351;52.408;16.826;2023-03-14T15:04:27;98496.62;;;14.31;64.55
26436;BME280;15351;52.408;16.826;2023-03-14T15:19:47;98489.10;;;14.28;64.64
26436;BME280;15351;52.408;16.826;2023-03-14T15:22:23;98486.42;;;14.30;64.94
26436;BME280;15351;52.408;16.826;2023-03-14T15:25:21;98486.56;;;14.33;64.72
26436;BME280;15351;52.408;16.826;2023-03-14T15:28:24;98482.13;;;14.33;64.81
26436;BME280;15351;52.408;16.826;2023-03-14T15:31:16;98476.73;;;14.32;64.90
26436;BME280;15351;52.408;16.826;2023-03-14T15:34:22;98480.95;;;14.31;64.75
26436;BME280;15351;52.408;16.826;2023-03-14T15:37:18;98477.60;;;14.32;64.99
26436;BME280;15351;52.408;16.826;2023-03-14T15:39:45;98476.10;;;14.33;65.13
26436;BME280;15351;52.408;16.826;2023-03-14T15:42:45;98478.85;;;14.35;64.95
26436;BME280;15351;52.408;16.826;2023-03-14T15:45:37;98475.31;;;14.35;64.87
26436;BME280;15351;52.408;16.826;2023-03-14T15:48:16;98474.69;;;14.33;64.81
26436;BME280;15351;52.408;16.826;2023-03-14T15:50:44;98478.98;;;14.30;64.80
26436;BME280;15351;52.408;16.826;2023-03-14T15:53:21;98479.25;;;14.27;64.93
26436;BME280;15351;52.408;16.826;2023-03-14T15:55:58;98480.06;;;14.24;65.11
26436;BME280;15351;52.408;16.826;2023-03-14T15:58:27;98479.15;;;14.24;65.23
26436;BME280;15351;52.408;16.826;2023-03-14T16:01:02;98479.10;;;14.24;65.15
26436;BME280;15351;52.408;16.826;2023-03-14T16:04:28;98481.27;;;14.22;65.03
26436;BME280;15351;52.408;16.826;2023-03-14T16:07:37;98479.26;;;14.22;65.12
26436;BME280;15351;52.408;16.826;2023-03-14T16:10:38;98481.08;;;14.20;65.17
26436;BME280;15351;52.408;16.826;2023-03-14T16:13:55;98475.46;;;14.12;65.15
26436;BME280;15351;52.408;16.826;2023-03-14T16:17:13;98483.73;;;14.14;65.60
26436;BME280;15351;52.408;16.826;2023-03-14T16:20:24;98479.66;;;14.13;65.71
26436;BME280;15351;52.408;16.826;2023-03-14T16:23:21;98484.84;;;14.12;65.58
26436;BME280;15351;52.408;16.826;2023-03-14T16:25:48;98485.23;;;14.09;65.39
26436;BME280;15351;52.408;16.826;2023-03-14T16:28:16;98489.48;;;14.07;65.99
26436;BME280;15351;52.408;16.826;2023-03-14T16:30:45;98487.90;;;14.05;66.26
26436;BME280;15351;52.408;16.826;2023-03-14T16:34:08;98494.17;;;14.04;66.59
26436;BME280;15351;52.408;16.826;2023-03-14T16:36:35;98491.80;;;14.04;66.77
26436;BME280;15351;52.408;16.826;2023-03-14T16:39:07;98490.19;;;14.05;66.83
26436;BME280;15351;52.408;16.826;2023-03-14T16:41:38;98493.15;;;14.01;66.79
26436;BME280;15351;52.408;16.826;2023-03-14T16:44:07;98498.68;;;13.97;67.05
26436;BME280;15351;52.408;16.826;2023-03-14T16:46:40;98499.53;;;13.93;67.53
26436;BME280;15351;52.408;16.826;2023-03-14T16:49:13;98499.75;;;13.90;68.32
26436;BME280;15351;52.408;16.826;2023-03-14T16:51:41;98493.69;;;13.85;68.95
26436;BME280;15351;52.408;16.826;2023-03-14T16:54:08;98491.91;;;13.86;69.58
26436;BME280;15351;52.408;16.826;2023-03-14T16:56:35;98497.31;;;13.82;70.14
26436;BME280;15351;52.408;16.826;2023-03-14T16:59:04;98501.38;;;13.74;70.62
26436;BME280;15351;52.408;16.826;2023-03-14T17:01:36;98502.79;;;13.71;71.27
26436;BME280;15351;52.408;16.826;2023-03-14T17:04:17;98509.17;;;13.68;71.51
26436;BME280;15351;52.408;16.826;2023-03-14T17:06:45;98519.03;;;13.65;71.99
26436;BME280;15351;52.408;16.826;2023-03-14T17:09:20;98530.52;;;13.58;71.82
26436;BME280;15351;52.408;16.826;2023-03-14T17:11:47;98534.92;;;13.50;71.99
26436;BME280;15351;52.408;16.826;2023-03-14T17:14:27;98539.10;;;13.42;71.72
26436;BME280;15351;52.408;16.826;2023-03-14T17:17:01;98549.71;;;13.33;71.62